createdAt,value
2019-04-10T00:01:21.558Z,18.17
2019-04-10T00:03:50.398Z,17.70
2019-04-10T00:06:18.804Z,16.80
2019-04-10T00:08:47.028Z,17.35
2019-04-10T00:11:15.281Z,16.60
2019-04-10T00:13:43.522Z,17.98
2019-04-10T00:16:11.890Z,18.32
2019-04-10T00:18:40.182Z,19.12
2019-04-10T00:21:09.149Z,17.95
2019-04-10T00:23:37.426Z,16.97
2019-04-10T00:26:05.639Z,15.68
2019-04-10T00:28:33.944Z,16.48
2019-04-10T00:31:02.167Z,16.90
2019-04-10T00:33:30.404Z,16.32
2019-04-10T00:35:59.523Z,14.35
2019-04-10T00:38:27.892Z,14.70
2019-04-10T00:40:56.121Z,12.82
2019-04-10T00:43:24.642Z,13.65
2019-04-10T00:45:53.582Z,14.10
2019-04-10T00:48:21.875Z,13.40
2019-04-10T00:50:50.863Z,13.80
2019-04-10T00:53:19.314Z,12.90
2019-04-10T00:55:48.165Z,14.00
2019-04-10T00:58:16.456Z,13.72
2019-04-10T01:00:45.402Z,14.18
2019-04-10T01:03:15.807Z,13.93
2019-04-10T01:05:44.034Z,13.62
2019-04-10T01:08:12.737Z,14.25
2019-04-10T01:10:42.096Z,13.30
2019-04-10T01:13:10.474Z,13.18
2019-04-10T01:15:38.704Z,14.45
2019-04-10T01:18:06.917Z,15.18
2019-04-10T01:20:35.183Z,14.63
2019-04-10T01:23:03.597Z,15.35
2019-04-10T01:25:32.546Z,14.13
2019-04-10T01:28:00.908Z,13.98
2019-04-10T01:30:29.135Z,14.07
2019-04-10T01:32:58.529Z,13.72
2019-04-10T01:35:26.877Z,12.20
2019-04-10T01:38:00.509Z,12.80
2019-04-10T01:40:25.067Z,11.88
2019-04-10T01:43:02.309Z,11.88
2019-04-10T01:45:23.239Z,11.22
2019-04-10T01:47:51.456Z,12.07
2019-04-10T01:50:20.105Z,13.30
2019-04-10T01:52:49.157Z,14.30
2019-04-10T01:55:25.291Z,13.28
2019-04-10T01:57:48.430Z,13.10
2019-04-10T02:00:19.489Z,13.88
2019-04-10T02:02:52.108Z,12.20
2019-04-10T02:05:20.718Z,12.88
2019-04-10T02:08:01.277Z,12.33
2019-04-10T02:10:19.002Z,11.40
2019-04-10T02:12:47.290Z,12.98
2019-04-10T02:15:15.902Z,12.33
2019-04-10T02:17:44.492Z,12.30
2019-04-10T02:20:12.833Z,12.68
2019-04-10T02:22:41.085Z,15.68
2019-04-10T02:25:09.507Z,17.35
2019-04-10T02:27:38.400Z,15.13
2019-04-10T02:30:10.361Z,15.00
2019-04-10T02:32:39.507Z,15.38
2019-04-10T02:35:10.614Z,15.75
2019-04-10T02:37:39.453Z,13.95
2019-04-10T02:40:09.940Z,15.75
2019-04-10T02:42:38.781Z,14.80
2019-04-10T02:45:08.522Z,15.05
2019-04-10T02:47:37.189Z,15.15
2019-04-10T02:50:07.931Z,14.93
2019-04-10T02:52:37.060Z,16.32
2019-04-10T02:55:08.994Z,14.15
2019-04-10T02:57:37.463Z,18.07
2019-04-10T03:00:08.366Z,17.87
2019-04-10T03:02:38.682Z,16.05
2019-04-10T03:05:07.190Z,16.45
2019-04-10T03:07:37.436Z,15.93
2019-04-10T03:10:17.515Z,16.87
2019-04-10T03:12:38.559Z,16.75
2019-04-10T03:15:08.632Z,18.07
2019-04-10T03:17:36.731Z,17.48
2019-04-10T03:20:05.952Z,16.45
2019-04-10T03:22:34.675Z,17.62
2019-04-10T03:25:02.999Z,16.48
2019-04-10T03:27:31.243Z,17.45
2019-04-10T03:30:00.194Z,17.48
2019-04-10T03:32:36.607Z,16.82
2019-04-10T03:35:20.723Z,16.52
2019-04-10T03:37:49.098Z,16.90
2019-04-10T03:40:17.461Z,17.48
2019-04-10T03:42:45.743Z,17.27
2019-04-10T03:45:14.033Z,17.12
2019-04-10T03:47:42.250Z,18.25
2019-04-10T03:50:10.821Z,17.65
2019-04-10T03:52:39.166Z,16.40
2019-04-10T03:55:08.343Z,15.28
2019-04-10T03:57:36.834Z,16.77
2019-04-10T04:00:06.106Z,15.75
2019-04-10T04:02:34.358Z,16.30
2019-04-10T04:05:02.695Z,16.00
2019-04-10T04:07:30.878Z,16.60
2019-04-10T04:09:59.983Z,16.90
2019-04-10T04:12:28.797Z,15.88
2019-04-10T04:14:57.126Z,15.90
2019-04-10T04:17:26.252Z,17.27
2019-04-10T04:19:54.649Z,13.70
2019-04-10T04:22:22.952Z,15.35
2019-04-10T04:24:52.377Z,15.53
2019-04-10T04:27:21.609Z,14.80
2019-04-10T04:29:49.945Z,13.72
2019-04-10T04:32:18.173Z,14.63
2019-04-10T04:34:47.375Z,14.40
2019-04-10T04:37:16.581Z,13.40
2019-04-10T04:39:45.330Z,13.18
2019-04-10T04:42:13.667Z,13.72
2019-04-10T04:44:41.878Z,12.30
2019-04-10T04:47:10.106Z,14.38
2019-04-10T04:49:38.327Z,13.10
2019-04-10T04:52:06.952Z,12.93
2019-04-10T04:54:35.678Z,11.55
2019-04-10T04:57:04.490Z,11.50
2019-04-10T04:59:32.861Z,12.40
2019-04-10T05:02:01.301Z,12.40
2019-04-10T05:04:32.212Z,12.25
2019-04-10T05:06:59.928Z,11.68
2019-04-10T05:09:34.277Z,10.32
2019-04-10T05:12:00.660Z,10.45
2019-04-10T05:14:29.470Z,9.85
2019-04-10T05:17:00.646Z,11.15
2019-04-10T05:19:29.734Z,14.85
2019-04-10T05:21:58.081Z,24.47
2019-04-10T05:24:26.346Z,28.85
2019-04-10T05:26:54.626Z,37.55
2019-04-10T05:29:22.898Z,37.25
2019-04-10T05:31:51.123Z,38.30
2019-04-10T05:34:19.864Z,39.75
2019-04-10T05:36:49.131Z,38.33
2019-04-10T05:39:17.535Z,38.78
2019-04-10T05:41:46.938Z,37.90
2019-04-10T05:44:16.541Z,39.30
2019-04-10T05:46:45.240Z,36.70
2019-04-10T05:49:14.951Z,37.38
2019-04-10T05:51:43.663Z,37.93
2019-04-10T05:54:12.939Z,37.03
2019-04-10T05:56:41.168Z,35.92
2019-04-10T05:59:10.812Z,36.77
2019-04-10T06:01:41.304Z,38.00
2019-04-10T06:04:09.302Z,36.85
2019-04-10T06:06:38.713Z,37.33
2019-04-10T06:09:08.780Z,35.25
2019-04-10T06:11:37.539Z,39.55
2019-04-10T06:14:05.765Z,35.98
2019-04-10T06:16:34.319Z,36.38
2019-04-10T06:19:03.955Z,35.92
2019-04-10T06:21:32.219Z,34.78
2019-04-10T06:24:00.454Z,37.42
2019-04-10T06:26:29.906Z,36.45
2019-04-10T06:28:58.962Z,36.77
2019-04-10T06:31:28.403Z,37.60
2019-04-10T06:33:58.472Z,38.02
2019-04-10T06:36:27.205Z,37.93
2019-04-10T06:38:56.910Z,39.18
2019-04-10T06:41:26.401Z,38.20
2019-04-10T06:43:55.246Z,36.95
2019-04-10T06:46:24.344Z,37.98
2019-04-10T06:48:52.713Z,39.03
2019-04-10T06:51:21.686Z,36.98
2019-04-10T06:53:59.919Z,37.40
2019-04-10T06:56:21.636Z,37.42
2019-04-10T06:58:49.955Z,38.33
2019-04-10T07:01:20.960Z,37.85
2019-04-10T07:03:56.588Z,38.13
2019-04-10T07:06:21.956Z,36.48
2019-04-10T07:08:50.847Z,38.40
2019-04-10T07:11:19.924Z,36.98
2019-04-10T07:13:48.878Z,39.23
2019-04-10T07:16:17.973Z,37.65
2019-04-10T07:18:49.017Z,35.70
2019-04-10T07:21:16.759Z,38.17
2019-04-10T07:23:45.454Z,35.55
2019-04-10T07:26:18.516Z,36.53
2019-04-10T07:28:45.908Z,33.92
2019-04-10T07:31:14.254Z,35.88
2019-04-10T07:33:42.621Z,36.05
2019-04-10T07:36:13.639Z,38.10
2019-04-10T07:38:41.342Z,35.03
2019-04-10T07:41:14.290Z,36.48
2019-04-10T07:43:40.606Z,35.85
2019-04-10T07:46:08.943Z,35.98
2019-04-10T07:48:37.845Z,35.78
2019-04-10T07:51:06.993Z,36.05
2019-04-10T07:53:35.349Z,35.50
2019-04-10T07:56:07.564Z,35.92
2019-04-10T07:58:34.274Z,35.03
2019-04-10T08:01:02.570Z,36.70
2019-04-10T08:03:31.136Z,37.17
2019-04-10T08:06:00.377Z,34.65
2019-04-10T08:08:29.811Z,36.33
2019-04-10T08:10:59.386Z,36.08
2019-04-10T08:13:28.795Z,36.10
2019-04-10T08:15:58.385Z,35.38
2019-04-10T08:18:27.562Z,36.70
2019-04-10T08:20:57.160Z,36.45
2019-04-10T08:23:26.006Z,34.98
2019-04-10T08:25:54.334Z,36.23
2019-04-10T08:28:22.565Z,36.17
2019-04-10T08:30:50.795Z,35.78
2019-04-10T08:33:19.530Z,36.93
2019-04-10T08:35:47.929Z,36.03
2019-04-10T08:38:17.230Z,37.40
2019-04-10T08:40:48.107Z,35.65
2019-04-10T08:43:16.472Z,36.45
2019-04-10T08:45:48.492Z,38.58
2019-04-10T08:48:15.551Z,38.17
2019-04-10T08:50:44.019Z,36.50
2019-04-10T08:53:12.353Z,37.58
2019-04-10T08:55:52.775Z,36.40
2019-04-10T08:58:21.009Z,39.55
2019-04-10T09:00:50.968Z,39.75
2019-04-10T09:03:19.202Z,39.50
2019-04-10T09:05:47.433Z,39.15
2019-04-10T09:08:15.663Z,39.58
2019-04-10T09:10:44.801Z,39.80
2019-04-10T09:13:13.077Z,41.30
2019-04-10T09:15:42.279Z,40.38
2019-04-10T09:18:11.393Z,39.38
2019-04-10T09:20:40.542Z,38.53
2019-04-10T09:23:22.094Z,39.60
2019-04-10T09:25:39.454Z,41.40
2019-04-10T09:28:08.514Z,39.42
2019-04-10T09:30:37.219Z,39.27
2019-04-10T09:33:15.767Z,37.55
2019-04-10T09:35:36.286Z,40.05
2019-04-10T09:38:04.726Z,41.63
2019-04-10T09:40:33.321Z,40.20
2019-04-10T09:43:01.579Z,39.90
2019-04-10T09:45:30.604Z,40.35
2019-04-10T09:47:59.919Z,37.90
2019-04-10T09:50:28.334Z,38.63
2019-04-10T09:52:56.640Z,41.30
2019-04-10T09:55:24.980Z,39.42
2019-04-10T09:57:53.958Z,39.75
2019-04-10T10:00:23.395Z,41.13
2019-04-10T10:02:52.872Z,41.63
2019-04-10T10:05:22.277Z,41.13
2019-04-10T10:07:50.720Z,40.70
2019-04-10T10:10:19.035Z,38.85
2019-04-10T10:12:48.395Z,40.50
2019-04-10T10:15:18.972Z,40.60
2019-04-10T10:17:47.333Z,42.55
2019-04-10T10:20:15.549Z,41.00
2019-04-10T10:22:43.781Z,39.85
2019-04-10T10:25:13.105Z,41.18
2019-04-10T10:27:42.578Z,41.70
2019-04-10T10:30:11.508Z,41.58
2019-04-10T10:32:39.926Z,44.00
2019-04-10T10:35:09.164Z,42.70
2019-04-10T10:37:38.716Z,40.75
2019-04-10T10:40:08.838Z,44.27
2019-04-10T10:42:39.391Z,41.48
2019-04-10T10:45:07.889Z,41.42
2019-04-10T10:47:36.122Z,43.40
2019-04-10T10:50:06.654Z,42.90
2019-04-10T10:52:35.456Z,43.35
2019-04-10T10:55:05.357Z,43.85
2019-04-10T10:57:33.736Z,42.23
2019-04-10T11:00:02.176Z,43.45
2019-04-10T11:02:31.602Z,40.80
2019-04-10T11:05:02.916Z,42.33
2019-04-10T11:07:31.047Z,44.23
2019-04-10T11:10:01.155Z,41.13
2019-04-10T11:12:30.503Z,43.15
2019-04-10T11:14:59.460Z,42.83
2019-04-10T11:17:28.278Z,43.68
2019-04-10T11:19:57.732Z,42.55
2019-04-10T11:22:26.518Z,42.83
2019-04-10T11:24:55.733Z,43.90
2019-04-10T11:27:43.518Z,42.05
2019-04-10T11:30:12.618Z,42.75
2019-04-10T11:32:42.239Z,43.10
2019-04-10T11:35:13.105Z,41.13
2019-04-10T11:37:46.847Z,41.75
2019-04-10T11:40:15.840Z,43.68
2019-04-10T11:42:43.009Z,42.85
2019-04-10T11:45:14.403Z,43.35
2019-04-10T11:47:42.654Z,42.30
2019-04-10T11:52:47.998Z,41.80
2019-04-10T11:55:15.509Z,44.13
2019-04-10T11:57:42.118Z,43.23
2019-04-10T12:00:15.271Z,43.80
2019-04-10T12:02:45.011Z,43.95
2019-04-10T12:08:09.609Z,42.58
2019-04-10T12:12:41.700Z,43.85
2019-04-10T12:15:10.204Z,44.25
2019-04-10T12:17:38.511Z,42.30
2019-04-10T12:20:06.987Z,39.85
2019-04-10T12:22:35.846Z,41.10
2019-04-10T12:25:06.845Z,41.77
2019-04-10T12:27:35.198Z,41.30
2019-04-10T12:30:06.924Z,41.88
2019-04-10T12:32:35.240Z,41.23
2019-04-10T12:35:05.101Z,41.65
2019-04-10T12:37:33.362Z,40.23
2019-04-10T12:40:01.639Z,41.20
2019-04-10T12:42:30.275Z,41.28
2019-04-10T12:44:59.686Z,37.38
2019-04-10T12:47:28.046Z,39.25
2019-04-10T12:49:56.920Z,39.03
2019-04-10T12:52:25.551Z,40.17
2019-04-10T12:54:53.808Z,39.67
2019-04-10T12:57:23.067Z,41.08
2019-04-10T12:59:51.961Z,41.77
2019-04-10T13:02:20.579Z,40.12
2019-04-10T13:04:49.095Z,40.38
2019-04-10T13:07:17.351Z,41.15
2019-04-10T13:09:48.478Z,41.70
2019-04-10T13:12:17.501Z,41.35
2019-04-10T13:14:46.509Z,41.15
2019-04-10T13:17:14.859Z,41.55
2019-04-10T13:19:43.146Z,41.05
2019-04-10T13:22:11.680Z,42.73
2019-04-10T13:24:39.969Z,40.25
2019-04-10T13:27:08.401Z,41.60
2019-04-10T13:29:38.471Z,43.17
2019-04-10T13:32:07.647Z,41.75
2019-04-10T13:34:35.990Z,40.48
2019-04-10T13:37:04.221Z,40.63
2019-04-10T13:39:32.969Z,44.15
2019-04-10T13:42:01.220Z,43.98
2019-04-10T13:44:29.434Z,42.78
2019-04-10T13:46:57.762Z,41.42
2019-04-10T13:49:26.218Z,41.13
2019-04-10T13:51:54.515Z,44.67
2019-04-10T13:54:22.873Z,42.40
2019-04-10T13:56:51.153Z,43.70
2019-04-10T13:59:20.711Z,43.68
2019-04-10T14:01:50.202Z,44.03
2019-04-10T14:04:18.755Z,44.13
2019-04-10T14:06:49.146Z,45.40
2019-04-10T14:09:30.110Z,47.55
2019-04-10T14:11:49.194Z,43.05
2019-04-10T14:14:18.288Z,43.20
2019-04-10T14:16:46.814Z,44.65
2019-04-10T14:19:15.168Z,43.28
2019-04-10T14:21:43.382Z,42.58
2019-04-10T14:24:12.763Z,43.38
2019-04-10T14:26:48.872Z,41.83
2019-04-10T14:29:14.349Z,43.83
2019-04-10T14:31:49.356Z,41.05
2019-04-10T14:34:18.860Z,43.83
2019-04-10T14:36:48.473Z,41.65
2019-04-10T14:39:20.079Z,42.33
2019-04-10T14:41:46.808Z,44.55
2019-04-10T14:44:15.031Z,43.20
2019-04-10T14:46:44.264Z,41.55
2019-04-10T14:49:13.171Z,41.83
2019-04-10T14:51:41.503Z,43.35
2019-04-10T14:54:11.277Z,42.03
2019-04-10T14:56:39.991Z,40.35
2019-04-10T14:59:09.284Z,43.60
2019-04-10T15:01:37.994Z,42.27
2019-04-10T15:04:06.251Z,42.35
2019-04-10T15:06:34.515Z,41.90
2019-04-10T15:09:03.984Z,43.13
2019-04-10T15:11:32.972Z,42.13
2019-04-10T15:14:01.369Z,42.20
2019-04-10T15:16:30.195Z,42.83
2019-04-10T15:18:58.906Z,43.20
2019-04-10T15:21:27.199Z,41.90
2019-04-10T15:23:55.473Z,42.95
2019-04-10T15:26:24.007Z,42.08
2019-04-10T15:28:52.352Z,41.83
2019-04-10T15:31:21.524Z,41.02
2019-04-10T15:33:49.890Z,44.23
2019-04-10T15:36:18.111Z,42.67
2019-04-10T15:38:46.426Z,43.28
2019-04-10T15:41:14.848Z,43.95
2019-04-10T15:43:43.493Z,43.23
2019-04-10T15:46:12.835Z,42.30
2019-04-10T15:48:41.879Z,42.62
2019-04-10T15:51:10.178Z,42.33
2019-04-10T15:53:38.409Z,42.23
2019-04-10T15:56:06.630Z,41.53
2019-04-10T15:58:35.416Z,44.35
2019-04-10T16:01:05.616Z,43.02
2019-04-10T16:03:34.541Z,42.55
2019-04-10T16:06:03.910Z,44.80
2019-04-10T16:08:33.003Z,43.80
2019-04-10T16:11:05.831Z,43.05
2019-04-10T16:13:41.791Z,43.40
2019-04-10T16:16:27.932Z,43.85
2019-04-10T16:18:57.798Z,45.85
2019-04-10T16:21:26.933Z,43.52
2019-04-10T16:24:06.665Z,46.20
2019-04-10T16:26:35.720Z,45.38
2019-04-10T16:29:04.118Z,44.27
2019-04-10T16:31:32.402Z,45.20
2019-04-10T16:34:00.918Z,45.80
2019-04-10T16:36:29.781Z,42.73
2019-04-10T16:38:58.142Z,44.73
2019-04-10T16:41:29.195Z,47.25
2019-04-10T16:43:57.099Z,46.05
2019-04-10T16:46:25.407Z,47.00
2019-04-10T16:48:56.031Z,47.40
2019-04-10T16:51:24.273Z,50.90
2019-04-10T16:53:52.514Z,53.45
2019-04-10T16:56:21.212Z,50.92
2019-04-10T16:58:49.939Z,53.92
2019-04-10T17:01:18.404Z,54.83
2019-04-10T17:03:46.931Z,55.50
2019-04-10T17:06:15.526Z,54.33
2019-04-10T17:08:44.065Z,53.75
2019-04-10T17:11:12.636Z,52.27
2019-04-10T17:13:42.699Z,54.60
2019-04-10T17:16:11.114Z,54.90
2019-04-10T17:18:41.366Z,50.43
2019-04-10T17:21:10.908Z,51.42
2019-04-10T17:23:40.699Z,56.30
2019-04-10T17:26:10.724Z,52.78
2019-04-10T17:28:40.615Z,53.90
2019-04-10T17:31:12.437Z,55.92
2019-04-10T17:33:41.777Z,51.88
2019-04-10T17:36:11.826Z,53.02
2019-04-10T17:38:40.517Z,51.15
2019-04-10T17:41:09.209Z,55.80
2019-04-10T17:43:37.612Z,52.13
2019-04-10T17:46:06.951Z,54.13
2019-04-10T17:48:37.221Z,57.83
2019-04-10T17:51:05.915Z,52.70
2019-04-10T17:53:35.611Z,50.40
2019-04-10T17:56:04.409Z,53.50
2019-04-10T17:58:33.754Z,51.35
2019-04-10T18:01:03.924Z,53.65
2019-04-10T18:03:44.871Z,53.30
2019-04-10T18:06:03.327Z,54.30
2019-04-10T18:08:32.719Z,53.95
2019-04-10T18:11:01.067Z,54.73
2019-04-10T18:13:29.294Z,56.13
2019-04-10T18:15:57.531Z,56.73
2019-04-10T18:18:25.863Z,55.92
2019-04-10T18:20:56.097Z,56.02
2019-04-10T18:23:25.090Z,57.08
2019-04-10T18:25:54.166Z,59.05
2019-04-10T18:28:22.702Z,58.73
2019-04-10T18:30:50.932Z,58.13
2019-04-10T18:33:20.367Z,57.58
2019-04-10T18:35:49.112Z,53.98
2019-04-10T18:38:17.479Z,51.20
2019-04-10T18:40:53.052Z,52.38
2019-04-10T18:43:16.065Z,51.28
2019-04-10T18:45:56.637Z,53.35
2019-04-10T18:48:14.562Z,51.25
2019-04-10T18:50:43.450Z,53.70
2019-04-10T18:53:12.949Z,54.45
2019-04-10T18:55:41.356Z,53.52
2019-04-10T18:58:11.625Z,53.23
2019-04-10T19:00:42.759Z,52.90
2019-04-10T19:03:13.081Z,53.80
2019-04-10T19:05:45.748Z,54.45
2019-04-10T19:08:15.883Z,50.05
2019-04-10T19:10:45.368Z,53.00
2019-04-10T19:13:14.994Z,52.67
2019-04-10T19:15:44.660Z,48.65
2019-04-10T19:18:32.802Z,54.53
2019-04-10T19:21:01.315Z,51.50
2019-04-10T19:23:29.580Z,50.67
2019-04-10T19:25:58.885Z,51.75
2019-04-10T19:28:32.225Z,51.77
2019-04-10T19:31:12.813Z,51.90
2019-04-10T19:33:35.262Z,53.90
2019-04-10T19:36:03.718Z,50.58
2019-04-10T19:38:31.935Z,49.23
2019-04-10T19:41:00.535Z,50.55
2019-04-10T19:43:30.098Z,49.15
2019-04-10T19:45:58.999Z,49.80
2019-04-10T19:48:27.655Z,52.03
2019-04-10T19:50:56.077Z,51.50
2019-04-10T19:53:24.847Z,51.55
2019-04-10T19:55:53.882Z,51.53
2019-04-10T19:58:22.790Z,51.58
2019-04-10T20:00:51.372Z,54.03
2019-04-10T20:03:19.635Z,54.42
2019-04-10T20:05:49.259Z,51.88
2019-04-10T20:08:17.975Z,50.70
2019-04-10T20:10:46.324Z,53.87
2019-04-10T20:13:14.869Z,52.53
2019-04-10T20:15:43.317Z,50.73
2019-04-10T20:18:12.623Z,53.68
2019-04-10T20:20:41.803Z,51.48
2019-04-10T20:23:10.151Z,52.67
2019-04-10T20:25:38.805Z,52.43
2019-04-10T20:28:07.138Z,56.18
2019-04-10T20:30:35.441Z,51.08
2019-04-10T20:33:03.690Z,50.60
2019-04-10T20:35:32.083Z,50.98
2019-04-10T20:38:01.054Z,51.85
2019-04-10T20:40:29.764Z,53.25
2019-04-10T20:42:58.406Z,54.00
2019-04-10T20:45:27.356Z,53.85
2019-04-10T20:47:56.128Z,56.08
2019-04-10T20:50:24.482Z,55.08
2019-04-10T20:52:53.715Z,53.58
2019-04-10T20:55:22.115Z,56.77
2019-04-10T20:57:50.355Z,56.30
2019-04-10T21:00:23.027Z,55.45
2019-04-10T21:02:51.372Z,56.45
2019-04-10T21:05:19.885Z,54.58
2019-04-10T21:07:48.434Z,54.95
2019-04-10T21:10:17.139Z,52.53
2019-04-10T21:12:45.607Z,53.85
2019-04-10T21:15:13.842Z,57.45
2019-04-10T21:17:42.443Z,55.85
2019-04-10T21:20:13.280Z,58.38
2019-04-10T21:22:40.840Z,54.48
2019-04-10T21:25:10.192Z,55.55
2019-04-10T21:27:39.664Z,56.42
2019-04-10T21:30:16.370Z,54.63
2019-04-10T21:35:20.859Z,54.77
2019-04-10T21:37:49.141Z,57.53
2019-04-10T21:40:18.567Z,56.55
2019-04-10T21:42:47.617Z,51.68
2019-04-10T21:45:16.046Z,54.80
2019-04-10T21:47:44.311Z,54.25
2019-04-10T21:50:13.083Z,53.33
2019-04-10T21:52:41.459Z,53.90
2019-04-10T21:55:10.660Z,54.48
2019-04-10T21:57:39.087Z,53.75
2019-04-10T22:00:08.214Z,54.53
2019-04-10T22:02:36.512Z,52.17
2019-04-10T22:05:06.054Z,54.30
2019-04-10T22:07:43.058Z,54.58
2019-04-10T22:10:19.625Z,52.25
2019-04-10T22:12:51.019Z,53.55
2019-04-10T22:15:37.802Z,54.38
2019-04-10T22:18:07.158Z,52.75
2019-04-10T22:20:36.048Z,55.43
2019-04-10T22:23:04.423Z,54.67
2019-04-10T22:25:32.647Z,53.80
2019-04-10T22:28:00.864Z,57.73
2019-04-10T22:30:29.615Z,54.33
2019-04-10T22:32:57.900Z,51.20
2019-04-10T22:35:26.130Z,51.42
2019-04-10T22:37:54.526Z,52.30
2019-04-10T22:40:23.624Z,53.70
2019-04-10T22:42:53.160Z,56.28
2019-04-10T22:45:30.766Z,54.73
2019-04-10T22:48:00.553Z,55.45
2019-04-10T22:50:29.120Z,58.68
2019-04-10T22:52:57.351Z,56.60
2019-04-10T22:55:26.029Z,57.65
2019-04-10T22:57:54.781Z,55.92
2019-04-10T23:00:32.811Z,52.35
2019-04-10T23:03:01.235Z,55.73
2019-04-10T23:05:29.447Z,57.85
2019-04-10T23:07:58.928Z,55.25
2019-04-10T23:10:27.420Z,56.28
2019-04-10T23:13:01.688Z,55.43
2019-04-10T23:15:25.628Z,56.30
2019-04-10T23:17:54.240Z,56.40
2019-04-10T23:20:22.468Z,58.17
2019-04-10T23:22:50.774Z,54.40
2019-04-10T23:25:19.050Z,57.10
2019-04-10T23:27:48.227Z,56.15
2019-04-10T23:30:19.960Z,57.78
2019-04-10T23:32:48.531Z,54.80
2019-04-10T23:35:17.114Z,55.58
2019-04-10T23:37:45.463Z,55.10
2019-04-10T23:40:13.791Z,57.70
2019-04-10T23:42:42.091Z,55.95
2019-04-10T23:45:10.322Z,54.75
2019-04-10T23:47:38.559Z,53.60
2019-04-10T23:50:08.062Z,54.23
2019-04-10T23:52:36.422Z,53.90
2019-04-10T23:55:07.920Z,51.23
2019-04-10T23:57:36.300Z,53.58
